createdAt,value
2019-03-26T00:03:40.772Z,22.13
2019-03-26T00:06:11.238Z,23.47
2019-03-26T00:08:43.836Z,22.23
2019-03-26T00:11:14.348Z,23.17
2019-03-26T00:13:45.833Z,23.47
2019-03-26T00:16:15.426Z,22.70
2019-03-26T00:18:46.206Z,22.13
2019-03-26T00:23:50.225Z,22.83
2019-03-26T00:26:36.428Z,22.47
2019-03-26T00:32:24.918Z,23.00
2019-03-26T00:34:57.879Z,22.83
2019-03-26T00:37:35.213Z,23.47
2019-03-26T00:40:15.040Z,22.73
2019-03-26T00:42:51.108Z,22.93
2019-03-26T00:45:35.889Z,23.23
2019-03-26T00:48:11.118Z,22.37
2019-03-26T00:53:32.120Z,23.53
2019-03-26T00:56:24.270Z,23.67
2019-03-26T01:02:00.075Z,22.70
2019-03-26T01:04:37.935Z,23.50
2019-03-26T01:07:28.899Z,23.20
2019-03-26T01:10:12.811Z,23.27
2019-03-26T01:12:48.053Z,22.23
2019-03-26T01:15:21.787Z,24.23
2019-03-26T01:17:55.136Z,23.63
2019-03-26T01:20:29.474Z,23.93
2019-03-26T01:23:07.475Z,23.80
2019-03-26T01:25:39.714Z,24.50
2019-03-26T01:28:32.959Z,23.63
2019-03-26T01:31:03.279Z,24.30
2019-03-26T01:33:47.581Z,23.73
2019-03-26T01:36:21.345Z,23.43
2019-03-26T01:38:58.387Z,23.80
2019-03-26T01:41:37.680Z,22.90
2019-03-26T01:44:10.968Z,22.73
2019-03-26T01:46:46.731Z,22.63
2019-03-26T01:49:22.643Z,23.50
2019-03-26T01:51:56.034Z,22.07
2019-03-26T01:54:29.458Z,22.43
2019-03-26T01:57:05.955Z,21.70
2019-03-26T01:59:40.839Z,22.87
2019-03-26T02:02:31.473Z,21.87
2019-03-26T02:05:10.885Z,20.37
2019-03-26T02:07:41.415Z,20.27
2019-03-26T02:10:24.288Z,21.03
2019-03-26T02:13:18.416Z,19.53
2019-03-26T02:15:57.749Z,19.50
2019-03-26T02:18:32.718Z,20.20
2019-03-26T02:21:24.421Z,19.37
2019-03-26T02:23:58.588Z,19.57
2019-03-26T02:29:20.556Z,18.50
2019-03-26T02:32:09.572Z,19.37
2019-03-26T02:35:15.925Z,19.57
2019-03-26T02:37:53.816Z,19.33
2019-03-26T02:40:44.673Z,18.30
2019-03-26T02:43:27.418Z,17.73
2019-03-26T02:46:01.553Z,18.33
2019-03-26T02:52:37.122Z,17.90
2019-03-26T02:55:07.226Z,18.03
2019-03-26T02:57:38.313Z,17.90
2019-03-26T03:00:08.438Z,17.20
2019-03-26T03:05:35.545Z,17.77
2019-03-26T03:11:03.770Z,16.37
2019-03-26T03:13:33.349Z,16.87
2019-03-26T03:16:03.936Z,15.67
2019-03-26T03:21:37.641Z,15.83
2019-03-26T03:24:07.258Z,15.47
2019-03-26T03:26:39.494Z,15.87
2019-03-26T03:29:12.646Z,14.47
2019-03-26T03:31:43.971Z,14.50
2019-03-26T03:34:34.803Z,14.43
2019-03-26T03:37:14.812Z,14.90
2019-03-26T03:39:59.695Z,14.57
2019-03-26T03:42:29.880Z,13.40
2019-03-26T03:45:03.643Z,13.10
2019-03-26T03:47:57.008Z,14.23
2019-03-26T03:50:47.448Z,13.67
2019-03-26T03:53:36.570Z,12.93
2019-03-26T03:56:06.047Z,13.20
2019-03-26T03:58:35.628Z,13.93
2019-03-26T04:01:09.021Z,11.80
2019-03-26T04:03:52.560Z,12.17
2019-03-26T04:06:33.725Z,12.10
2019-03-26T04:09:12.169Z,12.70
2019-03-26T04:11:41.599Z,11.43
2019-03-26T04:14:11.131Z,10.97
2019-03-26T04:16:40.965Z,11.43
2019-03-26T04:19:10.818Z,11.50
2019-03-26T04:21:47.623Z,10.47
2019-03-26T04:24:17.482Z,10.57
2019-03-26T04:29:39.412Z,10.10
2019-03-26T04:32:09.474Z,10.20
2019-03-26T04:34:39.268Z,9.23
2019-03-26T04:37:10.356Z,9.10
2019-03-26T04:39:43.714Z,9.27
2019-03-26T04:42:16.871Z,9.37
2019-03-26T04:45:06.909Z,8.70
2019-03-26T04:47:36.437Z,9.10
2019-03-26T04:50:08.997Z,8.83
2019-03-26T04:52:38.515Z,8.20
2019-03-26T04:55:11.523Z,8.23
2019-03-26T04:57:41.124Z,8.03
2019-03-26T05:01:13.778Z,7.97
2019-03-26T05:02:49.725Z,8.07
2019-03-26T05:05:34.487Z,8.97
2019-03-26T05:08:03.963Z,7.30
2019-03-26T05:10:33.354Z,7.43
2019-03-26T05:13:06.258Z,7.07
2019-03-26T05:15:35.908Z,6.70
2019-03-26T05:18:15.781Z,7.13
2019-03-26T05:20:45.409Z,7.03
2019-03-26T05:23:14.765Z,7.27
2019-03-26T05:25:44.384Z,7.03
2019-03-26T05:28:14.169Z,6.30
2019-03-26T05:30:43.843Z,6.63
2019-03-26T05:36:03.114Z,6.37
2019-03-26T05:38:32.731Z,5.70
2019-03-26T05:41:04.643Z,5.93
2019-03-26T05:43:34.287Z,5.87
2019-03-26T05:46:10.527Z,5.80
2019-03-26T05:49:00.428Z,6.10
2019-03-26T05:51:31.768Z,5.40
2019-03-26T05:54:02.656Z,5.67
2019-03-26T05:56:47.159Z,6.77
2019-03-26T05:59:17.691Z,5.43
2019-03-26T06:01:48.843Z,5.50
2019-03-26T06:04:28.691Z,5.37
2019-03-26T06:07:04.827Z,5.30
2019-03-26T06:09:52.551Z,4.80
2019-03-26T06:12:21.963Z,4.90
2019-03-26T06:14:51.358Z,4.73
2019-03-26T06:17:22.346Z,4.63
2019-03-26T06:19:53.911Z,4.80
2019-03-26T06:22:23.641Z,4.80
2019-03-26T06:24:54.791Z,4.53
2019-03-26T06:27:29.434Z,4.53
2019-03-26T06:30:00.533Z,4.43
2019-03-26T06:35:21.760Z,4.97
2019-03-26T06:38:01.438Z,4.80
2019-03-26T06:40:32.161Z,5.93
2019-03-26T06:43:04.455Z,4.90
2019-03-26T06:45:35.645Z,4.90
2019-03-26T06:48:05.693Z,5.03
2019-03-26T06:50:35.635Z,5.90
2019-03-26T06:53:11.733Z,5.70
2019-03-26T06:55:50.269Z,5.67
2019-03-26T06:58:19.785Z,6.13
2019-03-26T07:00:50.448Z,7.00
2019-03-26T07:03:20.300Z,7.43
2019-03-26T07:05:50.071Z,8.00
2019-03-26T07:08:36.292Z,9.83
2019-03-26T07:11:06.188Z,10.17
2019-03-26T07:16:16.317Z,11.20
2019-03-26T07:18:46.213Z,11.80
2019-03-26T07:23:54.430Z,14.07
2019-03-26T07:26:24.264Z,14.57
2019-03-26T07:28:56.649Z,14.13
2019-03-26T07:31:25.065Z,14.63
2019-03-26T07:37:27.264Z,18.03
2019-03-26T07:39:56.898Z,20.10
2019-03-26T07:42:27.980Z,21.70
2019-03-26T07:45:04.890Z,22.13
2019-03-26T07:47:38.244Z,23.03
2019-03-26T07:53:32.413Z,23.05
2019-03-26T07:58:47.712Z,26.07
2019-03-26T08:01:20.798Z,24.93
2019-03-26T08:06:51.588Z,25.90
2019-03-26T08:09:24.712Z,26.70
2019-03-26T08:11:59.469Z,25.57
2019-03-26T08:14:29.210Z,26.43
2019-03-26T08:17:02.554Z,27.27
2019-03-26T08:28:31.244Z,23.73
2019-03-26T08:31:01.641Z,23.93
2019-03-26T08:33:32.781Z,23.57
2019-03-26T08:36:10.991Z,23.03
2019-03-26T08:38:40.976Z,22.47
2019-03-26T08:41:10.838Z,22.47
2019-03-26T08:49:02.863Z,20.47
2019-03-26T08:51:32.693Z,21.03
2019-03-26T08:54:03.709Z,21.00
2019-03-26T08:56:33.185Z,20.10
2019-03-26T08:59:06.563Z,19.47
2019-03-26T09:01:36.567Z,19.37
2019-03-26T09:04:22.735Z,17.57
2019-03-26T09:06:52.428Z,16.97
2019-03-26T09:09:23.025Z,16.80
2019-03-26T09:11:54.157Z,17.97
2019-03-26T09:14:49.005Z,16.20
2019-03-26T09:17:20.001Z,15.87
2019-03-26T09:19:53.115Z,15.57
2019-03-26T09:23:16.801Z,15.50
2019-03-26T09:25:46.356Z,14.80
2019-03-26T09:28:15.788Z,14.50
2019-03-26T09:33:23.973Z,13.13
2019-03-26T09:35:54.376Z,13.23
2019-03-26T09:38:41.631Z,12.67
2019-03-26T09:41:20.862Z,12.83
2019-03-26T09:43:50.876Z,12.23
2019-03-26T09:46:20.458Z,11.43
2019-03-26T09:51:28.884Z,10.53
2019-03-26T09:53:59.946Z,10.87
2019-03-26T09:59:15.504Z,10.47
2019-03-26T10:01:45.586Z,10.03
2019-03-26T10:04:14.971Z,9.53
2019-03-26T10:06:45.794Z,9.47
2019-03-26T10:09:32.109Z,9.00
2019-03-26T10:14:47.507Z,8.13
2019-03-26T10:17:17.705Z,8.63
2019-03-26T10:19:54.774Z,7.73
2019-03-26T10:22:41.107Z,7.17
2019-03-26T10:25:14.722Z,7.10
2019-03-26T10:27:52.014Z,7.13
2019-03-26T10:30:34.665Z,6.80
2019-03-26T10:33:04.248Z,6.57
2019-03-26T10:35:34.084Z,6.73
2019-03-26T10:38:03.790Z,6.50
2019-03-26T10:40:52.181Z,6.50
2019-03-26T10:43:21.674Z,6.30
2019-03-26T10:46:08.993Z,6.57
2019-03-26T10:54:18.232Z,5.70
2019-03-26T10:56:48.183Z,5.63
2019-03-26T10:59:36.869Z,5.20
2019-03-26T11:02:18.579Z,5.27
2019-03-26T11:04:56.806Z,4.90
2019-03-26T11:07:35.540Z,4.67
2019-03-26T11:12:55.482Z,4.73
2019-03-26T11:18:15.227Z,4.53
2019-03-26T11:21:02.264Z,4.17
2019-03-26T11:23:25.818Z,4.20
2019-03-26T11:25:55.195Z,3.83
2019-03-26T11:28:24.654Z,3.50
2019-03-26T11:31:03.041Z,3.63
2019-03-26T11:36:28.631Z,4.13
2019-03-26T11:41:52.159Z,3.87
2019-03-26T11:44:22.032Z,3.80
2019-03-26T11:46:57.384Z,3.63
2019-03-26T11:49:52.151Z,3.27
2019-03-26T11:52:23.503Z,3.67
2019-03-26T11:54:52.950Z,2.93
2019-03-26T11:57:23.726Z,3.13
2019-03-26T12:00:06.804Z,2.93
2019-03-26T12:02:27.827Z,3.30
2019-03-26T12:04:58.883Z,3.33
2019-03-26T12:09:57.178Z,3.27
2019-03-26T12:12:28.514Z,3.10
2019-03-26T12:14:59.034Z,2.80
2019-03-26T12:17:39.607Z,2.90
2019-03-26T12:20:09.438Z,2.80
2019-03-26T12:25:15.480Z,3.30
2019-03-26T12:30:33.399Z,3.00
2019-03-26T12:33:03.587Z,2.77
2019-03-26T12:35:33.322Z,2.77
2019-03-26T12:43:55.339Z,2.80
2019-03-26T12:49:07.724Z,2.97
2019-03-26T12:51:39.359Z,2.73
2019-03-26T12:57:02.908Z,3.50
2019-03-26T12:59:34.214Z,3.60
2019-03-26T13:02:13.376Z,4.13
2019-03-26T13:08:00.584Z,3.60
2019-03-26T13:13:19.244Z,4.07
2019-03-26T13:16:09.098Z,4.60
2019-03-26T13:18:45.488Z,4.03
2019-03-26T13:21:19.285Z,4.20
2019-03-26T13:23:53.215Z,4.60
2019-03-26T13:29:18.067Z,4.10
2019-03-26T13:31:54.703Z,4.33
2019-03-26T13:34:58.649Z,4.00
2019-03-26T13:38:13.117Z,4.20
2019-03-26T13:41:04.699Z,4.13
2019-03-26T13:43:38.157Z,4.20
2019-03-26T13:46:15.645Z,3.87
2019-03-26T13:51:31.404Z,4.30
2019-03-26T13:54:02.010Z,3.70
2019-03-26T13:56:34.023Z,3.20
2019-03-26T14:01:49.108Z,3.60
2019-03-26T14:04:19.052Z,3.93
2019-03-26T14:06:48.896Z,4.20
2019-03-26T14:09:33.742Z,3.50
2019-03-26T14:12:05.465Z,3.37
2019-03-26T14:14:40.400Z,3.73
2019-03-26T14:17:10.498Z,3.60
2019-03-26T14:19:40.444Z,3.30
2019-03-26T14:22:17.808Z,3.70
2019-03-26T14:25:07.265Z,3.60
2019-03-26T14:27:50.929Z,3.13
2019-03-26T14:30:44.150Z,3.40
2019-03-26T14:33:13.966Z,3.30
2019-03-26T14:38:34.487Z,3.50
2019-03-26T14:43:41.257Z,3.37
2019-03-26T14:46:26.778Z,3.90
2019-03-26T14:48:58.261Z,3.47
2019-03-26T14:51:27.744Z,3.27
2019-03-26T14:53:57.418Z,3.13
2019-03-26T14:56:43.699Z,3.37
2019-03-26T14:59:28.021Z,3.37
2019-03-26T15:04:54.970Z,3.20
2019-03-26T15:07:27.585Z,3.77
2019-03-26T15:09:57.614Z,3.20
2019-03-26T15:12:27.123Z,3.70
2019-03-26T15:15:03.958Z,3.70
2019-03-26T15:20:42.943Z,3.47
2019-03-26T15:23:12.936Z,3.53
2019-03-26T15:25:45.309Z,3.33
2019-03-26T15:28:23.279Z,3.13
2019-03-26T15:30:53.169Z,3.60
2019-03-26T15:33:28.418Z,3.47
2019-03-26T15:44:24.267Z,3.37
2019-03-26T15:46:56.906Z,3.30
2019-03-26T15:49:27.455Z,3.23
2019-03-26T15:51:59.639Z,3.37
2019-03-26T15:54:32.743Z,3.07
2019-03-26T15:59:38.854Z,3.33
2019-03-26T16:02:09.166Z,3.17
2019-03-26T16:04:56.400Z,3.20
2019-03-26T16:07:26.477Z,3.80
2019-03-26T16:10:02.405Z,3.47
2019-03-26T16:12:41.800Z,2.93
2019-03-26T16:15:15.006Z,3.37
2019-03-26T16:17:48.303Z,3.23
2019-03-26T16:20:18.379Z,3.33
2019-03-26T16:22:56.157Z,3.10
2019-03-26T16:25:26.096Z,3.37
2019-03-26T16:28:00.196Z,3.20
2019-03-26T16:30:59.832Z,3.87
2019-03-26T16:33:25.575Z,3.70
2019-03-26T16:35:56.164Z,3.90
2019-03-26T16:38:26.004Z,3.30
2019-03-26T16:41:10.135Z,3.50
2019-03-26T16:43:29.066Z,3.67
2019-03-26T16:45:58.833Z,4.20
2019-03-26T16:48:28.715Z,4.23
2019-03-26T16:51:06.895Z,3.40
2019-03-26T16:53:36.934Z,4.20
2019-03-26T16:56:10.920Z,3.60
2019-03-26T16:58:40.646Z,3.60
2019-03-26T17:01:10.675Z,3.90
2019-03-26T17:03:42.405Z,4.00
2019-03-26T17:06:14.129Z,3.30
2019-03-26T17:08:52.233Z,3.83
2019-03-26T17:11:22.020Z,4.27
2019-03-26T17:13:51.710Z,4.07
2019-03-26T17:16:21.668Z,3.40
2019-03-26T17:18:51.221Z,4.10
2019-03-26T17:21:21.156Z,3.93
2019-03-26T17:23:50.990Z,4.13
2019-03-26T17:26:20.516Z,4.60
2019-03-26T17:29:15.422Z,3.53
2019-03-26T17:31:42.829Z,4.03
2019-03-26T17:34:12.503Z,4.07
2019-03-26T17:36:44.009Z,3.87
2019-03-26T17:39:13.662Z,4.17
2019-03-26T17:41:46.258Z,4.47
2019-03-26T17:44:25.153Z,4.13
2019-03-26T17:53:16.067Z,4.57
2019-03-26T17:55:45.935Z,4.93
2019-03-26T17:58:36.221Z,4.63
2019-03-26T18:01:06.279Z,4.47
2019-03-26T18:03:45.658Z,5.00
2019-03-26T18:06:16.901Z,5.03
2019-03-26T18:08:52.594Z,5.00
2019-03-26T18:11:25.731Z,4.93
2019-03-26T18:13:56.272Z,5.67
2019-03-26T18:16:26.097Z,5.97
2019-03-26T18:18:59.251Z,6.00
2019-03-26T18:21:34.690Z,6.20
2019-03-26T18:24:05.673Z,6.73
2019-03-26T18:26:37.439Z,6.20
2019-03-26T18:29:07.376Z,6.20
2019-03-26T18:31:40.085Z,7.97
2019-03-26T18:34:09.644Z,7.10
2019-03-26T18:36:51.411Z,6.43
2019-03-26T18:39:21.305Z,7.77
2019-03-26T18:42:02.546Z,8.27
2019-03-26T18:44:41.466Z,8.20
2019-03-26T18:47:12.434Z,8.77
2019-03-26T18:49:43.283Z,8.57
2019-03-26T18:52:32.051Z,8.93
2019-03-26T18:57:49.079Z,10.37
2019-03-26T19:00:33.211Z,11.90
2019-03-26T19:03:04.871Z,11.27
2019-03-26T19:05:36.247Z,13.10
2019-03-26T19:08:07.225Z,14.90
2019-03-26T19:10:37.000Z,16.10
2019-03-26T19:13:19.661Z,16.87
2019-03-26T19:15:48.131Z,15.63
2019-03-26T19:18:47.196Z,15.50
2019-03-26T19:21:25.612Z,16.30
2019-03-26T19:24:04.862Z,15.27
2019-03-26T19:29:50.418Z,14.17
2019-03-26T19:32:20.127Z,14.63
2019-03-26T19:37:26.133Z,14.00
2019-03-26T19:39:58.134Z,15.20
2019-03-26T19:42:30.206Z,14.67
2019-03-26T19:44:59.900Z,14.40
2019-03-26T19:47:42.980Z,14.93
2019-03-26T19:50:13.013Z,14.53
2019-03-26T19:52:46.218Z,14.87
2019-03-26T19:58:09.776Z,15.40
2019-03-26T20:00:39.373Z,14.17
2019-03-26T20:03:13.570Z,14.83
2019-03-26T20:08:38.355Z,14.63
2019-03-26T20:11:08.031Z,15.17
2019-03-26T20:13:37.598Z,14.03
2019-03-26T20:16:07.813Z,14.90
2019-03-26T20:18:39.850Z,15.70
2019-03-26T20:21:18.840Z,17.47
2019-03-26T20:23:49.656Z,18.87
2019-03-26T20:26:23.613Z,18.17
2019-03-26T20:28:53.594Z,19.23
2019-03-26T20:31:23.522Z,20.77
2019-03-26T20:33:55.613Z,21.50
2019-03-26T20:36:38.401Z,22.57
2019-03-26T22:34:54.519Z,75.17
2019-03-26T22:37:30.282Z,75.20
2019-03-26T22:40:01.676Z,72.97
2019-03-26T22:42:36.970Z,71.13
2019-03-26T22:45:07.831Z,72.47
2019-03-26T22:47:57.562Z,72.77
2019-03-26T22:50:15.501Z,75.10
2019-03-26T22:52:48.605Z,73.33
2019-03-26T22:55:19.053Z,73.03
2019-03-26T22:57:51.452Z,73.77
2019-03-26T23:00:22.375Z,76.73
2019-03-26T23:02:56.100Z,72.10
2019-03-26T23:05:25.661Z,73.07
2019-03-26T23:07:58.129Z,75.27
2019-03-26T23:10:35.768Z,71.40
2019-03-26T23:13:05.874Z,74.37
2019-03-26T23:15:40.936Z,72.87
2019-03-26T23:18:12.911Z,76.47
2019-03-26T23:20:52.326Z,69.07
2019-03-26T23:23:24.555Z,74.73
2019-03-26T23:25:58.028Z,74.63
2019-03-26T23:28:27.554Z,74.07
2019-03-26T23:33:51.246Z,74.97
2019-03-26T23:36:21.099Z,72.63
2019-03-26T23:38:56.021Z,76.77
2019-03-26T23:41:35.823Z,76.60
2019-03-26T23:44:09.399Z,76.07
2019-03-26T23:46:39.723Z,74.27
2019-03-26T23:49:09.298Z,78.93
2019-03-26T23:51:41.962Z,76.60
2019-03-26T23:54:12.052Z,82.73
2019-03-26T23:56:42.866Z,80.23
2019-03-26T23:59:17.150Z,82.87
